sensor_id;sensor_type;location;lat;lon;timestamp;P1;durP1;ratioP1;P2;durP2;ratioP2
4268;SDS011;2148;48.554;7.834;2023-03-16T00:01:39;11.43;;;9.37;;
4268;SDS011;2148;48.554;7.834;2023-03-16T00:04:05;14.07;;;10.20;;
4268;SDS011;2148;48.554;7.834;2023-03-16T00:06:30;12.33;;;10.00;;
4268;SDS011;2148;48.554;7.834;2023-03-16T00:08:55;10.87;;;9.40;;
4268;SDS011;2148;48.554;7.834;2023-03-16T00:11:25;9.80;;;8.80;;
4268;SDS011;2148;48.554;7.834;2023-03-16T00:13:50;9.87;;;8.23;;
4268;SDS011;2148;48.554;7.834;2023-03-16T00:16:16;10.73;;;8.70;;
4268;SDS011;2148;48.554;7.834;2023-03-16T00:18:41;9.60;;;8.70;;
4268;SDS011;2148;48.554;7.834;2023-03-16T00:21:06;9.70;;;8.67;;
4268;SDS011;2148;48.554;7.834;2023-03-16T00:23:32;8.67;;;7.87;;
4268;SDS011;2148;48.554;7.834;2023-03-16T00:26:00;8.73;;;7.80;;
4268;SDS011;2148;48.554;7.834;2023-03-16T00:28:27;10.10;;;8.10;;
4268;SDS011;2148;48.554;7.834;2023-03-16T00:30:54;10.07;;;8.37;;
4268;SDS011;2148;48.554;7.834;2023-03-16T00:33:23;8.00;;;7.20;;
4268;SDS011;2148;48.554;7.834;2023-03-16T00:35:48;8.80;;;6.83;;
4268;SDS011;2148;48.554;7.834;2023-03-16T00:38:14;8.50;;;6.87;;
4268;SDS011;2148;48.554;7.834;2023-03-16T00:40:41;8.33;;;7.13;;
4268;SDS011;2148;48.554;7.834;2023-03-16T00:43:06;9.03;;;7.53;;
4268;SDS011;2148;48.554;7.834;2023-03-16T00:45:31;7.10;;;6.37;;
4268;SDS011;2148;48.554;7.834;2023-03-16T00:47:57;7.40;;;6.30;;
4268;SDS011;2148;48.554;7.834;2023-03-16T00:50:22;7.33;;;6.10;;
4268;SDS011;2148;48.554;7.834;2023-03-16T00:52:47;6.70;;;6.10;;
4268;SDS011;2148;48.554;7.834;2023-03-16T00:55:13;6.90;;;5.60;;
4268;SDS011;2148;48.554;7.834;2023-03-16T00:57:38;7.00;;;5.90;;
4268;SDS011;2148;48.554;7.834;2023-03-16T01:00:04;8.33;;;7.07;;
4268;SDS011;2148;48.554;7.834;2023-03-16T01:02:40;8.27;;;7.03;;
4268;SDS011;2148;48.554;7.834;2023-03-16T01:05:06;10.73;;;8.47;;
4268;SDS011;2148;48.554;7.834;2023-03-16T01:07:33;10.73;;;8.20;;
4268;SDS011;2148;48.554;7.834;2023-03-16T01:10:00;10.13;;;9.07;;
4268;SDS011;2148;48.554;7.834;2023-03-16T01:12:25;10.17;;;8.23;;
4268;SDS011;2148;48.554;7.834;2023-03-16T01:14:51;9.63;;;8.23;;
4268;SDS011;2148;48.554;7.834;2023-03-16T01:17:17;10.13;;;8.20;;
4268;SDS011;2148;48.554;7.834;2023-03-16T01:19:43;10.70;;;8.07;;
4268;SDS011;2148;48.554;7.834;2023-03-16T01:22:09;9.93;;;8.20;;
4268;SDS011;2148;48.554;7.834;2023-03-16T01:24:35;9.27;;;8.37;;
4268;SDS011;2148;48.554;7.834;2023-03-16T01:27:01;8.67;;;7.57;;
4268;SDS011;2148;48.554;7.834;2023-03-16T01:29:28;9.13;;;7.57;;
4268;SDS011;2148;48.554;7.834;2023-03-16T01:31:54;8.97;;;7.83;;
4268;SDS011;2148;48.554;7.834;2023-03-16T01:34:20;8.00;;;7.20;;
4268;SDS011;2148;48.554;7.834;2023-03-16T01:36:46;9.60;;;6.80;;
4268;SDS011;2148;48.554;7.834;2023-03-16T01:39:12;7.70;;;6.90;;
4268;SDS011;2148;48.554;7.834;2023-03-16T01:41:38;8.90;;;7.97;;
4268;SDS011;2148;48.554;7.834;2023-03-16T01:44:05;8.73;;;7.43;;
4268;SDS011;2148;48.554;7.834;2023-03-16T01:46:30;8.53;;;7.73;;
4268;SDS011;2148;48.554;7.834;2023-03-16T01:51:31;9.17;;;7.30;;
4268;SDS011;2148;48.554;7.834;2023-03-16T01:54:06;8.20;;;7.00;;
4268;SDS011;2148;48.554;7.834;2023-03-16T01:56:39;7.67;;;6.57;;
4268;SDS011;2148;48.554;7.834;2023-03-16T01:59:09;8.60;;;7.17;;
4268;SDS011;2148;48.554;7.834;2023-03-16T02:01:37;7.97;;;7.07;;
4268;SDS011;2148;48.554;7.834;2023-03-16T02:04:23;8.50;;;6.87;;
4268;SDS011;2148;48.554;7.834;2023-03-16T02:06:53;7.33;;;6.60;;
4268;SDS011;2148;48.554;7.834;2023-03-16T02:09:19;7.67;;;6.97;;
4268;SDS011;2148;48.554;7.834;2023-03-16T02:11:46;7.53;;;6.73;;
4268;SDS011;2148;48.554;7.834;2023-03-16T02:14:12;7.47;;;6.27;;
4268;SDS011;2148;48.554;7.834;2023-03-16T02:16:38;8.10;;;7.37;;
4268;SDS011;2148;48.554;7.834;2023-03-16T02:19:05;7.60;;;6.83;;
4268;SDS011;2148;48.554;7.834;2023-03-16T02:21:35;7.17;;;6.47;;
4268;SDS011;2148;48.554;7.834;2023-03-16T02:24:05;6.37;;;5.77;;
4268;SDS011;2148;48.554;7.834;2023-03-16T02:26:36;7.57;;;6.63;;
4268;SDS011;2148;48.554;7.834;2023-03-16T02:29:27;7.57;;;6.53;;
4268;SDS011;2148;48.554;7.834;2023-03-16T02:32:05;9.50;;;6.37;;
4268;SDS011;2148;48.554;7.834;2023-03-16T02:34:31;6.90;;;6.30;;
4268;SDS011;2148;48.554;7.834;2023-03-16T02:36:56;7.40;;;6.70;;
4268;SDS011;2148;48.554;7.834;2023-03-16T02:39:22;6.70;;;6.00;;
4268;SDS011;2148;48.554;7.834;2023-03-16T02:41:48;8.03;;;6.30;;
4268;SDS011;2148;48.554;7.834;2023-03-16T02:44:20;6.30;;;5.80;;
4268;SDS011;2148;48.554;7.834;2023-03-16T02:46:48;7.17;;;6.40;;
4268;SDS011;2148;48.554;7.834;2023-03-16T02:51:45;6.93;;;6.23;;
4268;SDS011;2148;48.554;7.834;2023-03-16T02:54:11;7.43;;;6.43;;
4268;SDS011;2148;48.554;7.834;2023-03-16T02:56:36;7.23;;;6.53;;
4268;SDS011;2148;48.554;7.834;2023-03-16T02:59:02;6.67;;;5.60;;
4268;SDS011;2148;48.554;7.834;2023-03-16T03:01:27;7.10;;;6.13;;
4268;SDS011;2148;48.554;7.834;2023-03-16T03:03:52;6.90;;;6.27;;
4268;SDS011;2148;48.554;7.834;2023-03-16T03:06:18;6.90;;;6.20;;
4268;SDS011;2148;48.554;7.834;2023-03-16T03:08:43;6.00;;;5.50;;
4268;SDS011;2148;48.554;7.834;2023-03-16T03:11:08;7.40;;;5.93;;
4268;SDS011;2148;48.554;7.834;2023-03-16T03:13:34;6.20;;;5.60;;
4268;SDS011;2148;48.554;7.834;2023-03-16T03:16:02;6.40;;;5.80;;
4268;SDS011;2148;48.554;7.834;2023-03-16T03:18:27;7.03;;;6.10;;
4268;SDS011;2148;48.554;7.834;2023-03-16T03:20:52;6.40;;;5.80;;
4268;SDS011;2148;48.554;7.834;2023-03-16T03:23:18;6.30;;;5.73;;
4268;SDS011;2148;48.554;7.834;2023-03-16T03:25:43;6.53;;;5.90;;
4268;SDS011;2148;48.554;7.834;2023-03-16T03:28:09;6.33;;;5.80;;
4268;SDS011;2148;48.554;7.834;2023-03-16T03:30:35;6.17;;;5.67;;
4268;SDS011;2148;48.554;7.834;2023-03-16T03:33:01;6.60;;;5.50;;
4268;SDS011;2148;48.554;7.834;2023-03-16T03:35:26;6.97;;;5.90;;
4268;SDS011;2148;48.554;7.834;2023-03-16T03:37:51;6.67;;;6.07;;
4268;SDS011;2148;48.554;7.834;2023-03-16T03:40:17;6.60;;;5.90;;
4268;SDS011;2148;48.554;7.834;2023-03-16T03:42:43;6.97;;;6.27;;
4268;SDS011;2148;48.554;7.834;2023-03-16T03:45:10;6.23;;;5.63;;
4268;SDS011;2148;48.554;7.834;2023-03-16T03:47:36;6.87;;;5.37;;
4268;SDS011;2148;48.554;7.834;2023-03-16T03:50:02;5.97;;;5.20;;
4268;SDS011;2148;48.554;7.834;2023-03-16T03:52:27;5.80;;;5.30;;
4268;SDS011;2148;48.554;7.834;2023-03-16T03:54:52;5.30;;;4.80;;
4268;SDS011;2148;48.554;7.834;2023-03-16T03:57:18;5.93;;;5.23;;
4268;SDS011;2148;48.554;7.834;2023-03-16T03:59:43;5.73;;;5.23;;
4268;SDS011;2148;48.554;7.834;2023-03-16T04:02:09;5.73;;;5.17;;
4268;SDS011;2148;48.554;7.834;2023-03-16T04:04:35;5.60;;;4.97;;
4268;SDS011;2148;48.554;7.834;2023-03-16T04:07:00;6.57;;;5.90;;
4268;SDS011;2148;48.554;7.834;2023-03-16T04:09:26;7.70;;;5.17;;
4268;SDS011;2148;48.554;7.834;2023-03-16T04:11:51;5.20;;;4.70;;
4268;SDS011;2148;48.554;7.834;2023-03-16T04:14:16;5.90;;;5.20;;
4268;SDS011;2148;48.554;7.834;2023-03-16T04:16:41;6.10;;;5.43;;
4268;SDS011;2148;48.554;7.834;2023-03-16T04:19:08;5.67;;;4.90;;
4268;SDS011;2148;48.554;7.834;2023-03-16T04:21:34;5.57;;;4.97;;
4268;SDS011;2148;48.554;7.834;2023-03-16T04:23:59;5.37;;;4.93;;
4268;SDS011;2148;48.554;7.834;2023-03-16T04:26:27;4.80;;;4.50;;
4268;SDS011;2148;48.554;7.834;2023-03-16T04:28:53;5.53;;;5.10;;
4268;SDS011;2148;48.554;7.834;2023-03-16T04:31:18;4.70;;;4.30;;
4268;SDS011;2148;48.554;7.834;2023-03-16T04:33:43;6.00;;;4.53;;
4268;SDS011;2148;48.554;7.834;2023-03-16T04:36:09;4.77;;;4.27;;
4268;SDS011;2148;48.554;7.834;2023-03-16T04:38:35;4.60;;;4.20;;
4268;SDS011;2148;48.554;7.834;2023-03-16T04:41:02;5.60;;;4.10;;
4268;SDS011;2148;48.554;7.834;2023-03-16T04:43:28;4.37;;;3.93;;
4268;SDS011;2148;48.554;7.834;2023-03-16T04:45:54;4.00;;;3.70;;
4268;SDS011;2148;48.554;7.834;2023-03-16T04:48:19;5.10;;;3.80;;
4268;SDS011;2148;48.554;7.834;2023-03-16T04:50:46;4.00;;;3.60;;
4268;SDS011;2148;48.554;7.834;2023-03-16T04:53:12;3.80;;;3.50;;
4268;SDS011;2148;48.554;7.834;2023-03-16T04:55:37;4.70;;;3.80;;
4268;SDS011;2148;48.554;7.834;2023-03-16T04:58:02;3.97;;;3.30;;
4268;SDS011;2148;48.554;7.834;2023-03-16T05:00:28;3.70;;;3.40;;
4268;SDS011;2148;48.554;7.834;2023-03-16T05:02:53;3.63;;;3.27;;
4268;SDS011;2148;48.554;7.834;2023-03-16T05:05:18;3.60;;;3.30;;
4268;SDS011;2148;48.554;7.834;2023-03-16T05:07:45;3.67;;;3.37;;
4268;SDS011;2148;48.554;7.834;2023-03-16T05:10:11;3.27;;;2.97;;
4268;SDS011;2148;48.554;7.834;2023-03-16T05:12:38;3.90;;;3.13;;
4268;SDS011;2148;48.554;7.834;2023-03-16T05:15:03;4.07;;;3.30;;
4268;SDS011;2148;48.554;7.834;2023-03-16T05:17:29;3.50;;;3.20;;
4268;SDS011;2148;48.554;7.834;2023-03-16T05:19:55;5.00;;;3.33;;
4268;SDS011;2148;48.554;7.834;2023-03-16T05:22:20;3.70;;;3.40;;
4268;SDS011;2148;48.554;7.834;2023-03-16T05:24:45;4.10;;;3.30;;
4268;SDS011;2148;48.554;7.834;2023-03-16T05:27:10;3.70;;;3.40;;
4268;SDS011;2148;48.554;7.834;2023-03-16T05:29:36;4.20;;;3.03;;
4268;SDS011;2148;48.554;7.834;2023-03-16T05:32:01;3.80;;;3.37;;
4268;SDS011;2148;48.554;7.834;2023-03-16T05:34:26;4.30;;;3.00;;
4268;SDS011;2148;48.554;7.834;2023-03-16T05:36:52;4.07;;;3.60;;
4268;SDS011;2148;48.554;7.834;2023-03-16T05:39:17;3.80;;;3.50;;
4268;SDS011;2148;48.554;7.834;2023-03-16T05:41:42;4.20;;;3.40;;
4268;SDS011;2148;48.554;7.834;2023-03-16T05:44:08;3.77;;;3.47;;
4268;SDS011;2148;48.554;7.834;2023-03-16T05:46:34;4.63;;;3.87;;
4268;SDS011;2148;48.554;7.834;2023-03-16T05:48:59;4.33;;;3.93;;
4268;SDS011;2148;48.554;7.834;2023-03-16T05:51:25;4.27;;;3.93;;
4268;SDS011;2148;48.554;7.834;2023-03-16T05:53:53;4.80;;;4.30;;
4268;SDS011;2148;48.554;7.834;2023-03-16T05:56:25;4.60;;;4.17;;
4268;SDS011;2148;48.554;7.834;2023-03-16T05:58:52;5.83;;;4.50;;
4268;SDS011;2148;48.554;7.834;2023-03-16T06:01:18;4.87;;;4.43;;
4268;SDS011;2148;48.554;7.834;2023-03-16T06:03:44;5.47;;;4.17;;
4268;SDS011;2148;48.554;7.834;2023-03-16T06:06:10;4.20;;;3.90;;
4268;SDS011;2148;48.554;7.834;2023-03-16T06:08:36;4.17;;;3.77;;
4268;SDS011;2148;48.554;7.834;2023-03-16T06:11:01;4.50;;;4.07;;
4268;SDS011;2148;48.554;7.834;2023-03-16T06:13:27;3.57;;;3.27;;
4268;SDS011;2148;48.554;7.834;2023-03-16T06:15:52;4.47;;;3.63;;
4268;SDS011;2148;48.554;7.834;2023-03-16T06:18:17;3.57;;;3.27;;
4268;SDS011;2148;48.554;7.834;2023-03-16T06:20:42;3.80;;;3.50;;
4268;SDS011;2148;48.554;7.834;2023-03-16T06:23:07;3.67;;;3.37;;
4268;SDS011;2148;48.554;7.834;2023-03-16T06:25:33;4.50;;;3.47;;
4268;SDS011;2148;48.554;7.834;2023-03-16T06:27:58;4.30;;;3.77;;
4268;SDS011;2148;48.554;7.834;2023-03-16T06:30:23;4.50;;;3.63;;
4268;SDS011;2148;48.554;7.834;2023-03-16T06:32:48;3.70;;;3.30;;
4268;SDS011;2148;48.554;7.834;2023-03-16T06:35:14;3.40;;;3.10;;
4268;SDS011;2148;48.554;7.834;2023-03-16T06:37:39;4.40;;;4.00;;
4268;SDS011;2148;48.554;7.834;2023-03-16T06:40:05;3.83;;;3.17;;
4268;SDS011;2148;48.554;7.834;2023-03-16T06:42:31;4.20;;;3.80;;
4268;SDS011;2148;48.554;7.834;2023-03-16T06:44:56;4.20;;;3.80;;
4268;SDS011;2148;48.554;7.834;2023-03-16T06:47:21;4.00;;;3.60;;
4268;SDS011;2148;48.554;7.834;2023-03-16T06:49:46;4.70;;;4.30;;
4268;SDS011;2148;48.554;7.834;2023-03-16T06:52:12;6.50;;;5.70;;
4268;SDS011;2148;48.554;7.834;2023-03-16T06:54:38;5.73;;;5.13;;
4268;SDS011;2148;48.554;7.834;2023-03-16T06:57:05;5.13;;;4.73;;
4268;SDS011;2148;48.554;7.834;2023-03-16T06:59:30;5.30;;;4.80;;
4268;SDS011;2148;48.554;7.834;2023-03-16T07:01:56;5.77;;;4.60;;
4268;SDS011;2148;48.554;7.834;2023-03-16T07:04:21;5.50;;;5.00;;
4268;SDS011;2148;48.554;7.834;2023-03-16T07:06:46;5.70;;;5.10;;
4268;SDS011;2148;48.554;7.834;2023-03-16T07:09:12;5.77;;;5.10;;
4268;SDS011;2148;48.554;7.834;2023-03-16T07:11:37;6.13;;;5.53;;
4268;SDS011;2148;48.554;7.834;2023-03-16T07:14:03;6.00;;;5.33;;
4268;SDS011;2148;48.554;7.834;2023-03-16T07:16:28;6.47;;;5.60;;
4268;SDS011;2148;48.554;7.834;2023-03-16T07:18:54;6.83;;;6.07;;
4268;SDS011;2148;48.554;7.834;2023-03-16T07:21:19;6.10;;;5.50;;
4268;SDS011;2148;48.554;7.834;2023-03-16T07:23:45;6.70;;;5.93;;
4268;SDS011;2148;48.554;7.834;2023-03-16T07:26:11;7.13;;;6.20;;
4268;SDS011;2148;48.554;7.834;2023-03-16T07:28:37;7.27;;;5.67;;
4268;SDS011;2148;48.554;7.834;2023-03-16T07:31:03;7.73;;;4.97;;
4268;SDS011;2148;48.554;7.834;2023-03-16T07:33:29;5.87;;;4.83;;
4268;SDS011;2148;48.554;7.834;2023-03-16T07:35:56;4.80;;;4.23;;
4268;SDS011;2148;48.554;7.834;2023-03-16T07:38:21;4.70;;;4.30;;
4268;SDS011;2148;48.554;7.834;2023-03-16T07:40:46;4.80;;;4.30;;
4268;SDS011;2148;48.554;7.834;2023-03-16T07:43:11;4.67;;;4.20;;
4268;SDS011;2148;48.554;7.834;2023-03-16T07:45:37;4.97;;;4.57;;
4268;SDS011;2148;48.554;7.834;2023-03-16T07:48:02;5.23;;;4.73;;
4268;SDS011;2148;48.554;7.834;2023-03-16T07:50:27;4.60;;;4.20;;
4268;SDS011;2148;48.554;7.834;2023-03-16T07:52:53;5.50;;;5.00;;
4268;SDS011;2148;48.554;7.834;2023-03-16T07:55:18;5.00;;;4.50;;
4268;SDS011;2148;48.554;7.834;2023-03-16T07:57:43;5.13;;;4.63;;
4268;SDS011;2148;48.554;7.834;2023-03-16T08:00:11;6.00;;;5.30;;
4268;SDS011;2148;48.554;7.834;2023-03-16T08:02:38;6.60;;;5.03;;
4268;SDS011;2148;48.554;7.834;2023-03-16T08:05:03;5.10;;;4.67;;
4268;SDS011;2148;48.554;7.834;2023-03-16T08:07:29;6.00;;;4.70;;
4268;SDS011;2148;48.554;7.834;2023-03-16T08:09:55;9.97;;;5.50;;
4268;SDS011;2148;48.554;7.834;2023-03-16T08:12:21;5.70;;;4.90;;
4268;SDS011;2148;48.554;7.834;2023-03-16T08:14:46;5.00;;;4.60;;
4268;SDS011;2148;48.554;7.834;2023-03-16T08:17:12;5.50;;;4.30;;
4268;SDS011;2148;48.554;7.834;2023-03-16T08:19:38;4.93;;;4.50;;
4268;SDS011;2148;48.554;7.834;2023-03-16T08:22:03;11.40;;;5.50;;
4268;SDS011;2148;48.554;7.834;2023-03-16T08:24:30;4.97;;;4.53;;
4268;SDS011;2148;48.554;7.834;2023-03-16T08:26:56;7.17;;;4.47;;
4268;SDS011;2148;48.554;7.834;2023-03-16T08:29:22;5.30;;;4.80;;
4268;SDS011;2148;48.554;7.834;2023-03-16T08:31:48;4.97;;;4.47;;
4268;SDS011;2148;48.554;7.834;2023-03-16T08:34:14;6.53;;;4.40;;
4268;SDS011;2148;48.554;7.834;2023-03-16T08:36:40;7.33;;;4.47;;
4268;SDS011;2148;48.554;7.834;2023-03-16T08:39:07;5.87;;;4.67;;
4268;SDS011;2148;48.554;7.834;2023-03-16T08:41:33;5.30;;;4.80;;
4268;SDS011;2148;48.554;7.834;2023-03-16T08:43:58;7.13;;;4.77;;
4268;SDS011;2148;48.554;7.834;2023-03-16T08:46:24;7.70;;;5.43;;
4268;SDS011;2148;48.554;7.834;2023-03-16T08:48:49;8.60;;;5.03;;
4268;SDS011;2148;48.554;7.834;2023-03-16T08:51:14;6.13;;;5.13;;
4268;SDS011;2148;48.554;7.834;2023-03-16T08:53:41;5.93;;;5.33;;
4268;SDS011;2148;48.554;7.834;2023-03-16T08:56:08;6.27;;;4.63;;
4268;SDS011;2148;48.554;7.834;2023-03-16T08:58:36;8.20;;;5.23;;
4268;SDS011;2148;48.554;7.834;2023-03-16T09:01:03;5.43;;;4.60;;
4268;SDS011;2148;48.554;7.834;2023-03-16T09:03:29;7.00;;;4.80;;
4268;SDS011;2148;48.554;7.834;2023-03-16T09:06:00;4.53;;;4.10;;
4268;SDS011;2148;48.554;7.834;2023-03-16T09:08:26;4.30;;;3.90;;
4268;SDS011;2148;48.554;7.834;2023-03-16T09:11:02;4.17;;;3.87;;
4268;SDS011;2148;48.554;7.834;2023-03-16T09:13:29;5.53;;;3.90;;
4268;SDS011;2148;48.554;7.834;2023-03-16T09:15:55;4.63;;;3.17;;
4268;SDS011;2148;48.554;7.834;2023-03-16T09:18:22;3.73;;;3.03;;
4268;SDS011;2148;48.554;7.834;2023-03-16T09:20:50;4.27;;;3.20;;
4268;SDS011;2148;48.554;7.834;2023-03-16T09:23:15;4.00;;;3.60;;
4268;SDS011;2148;48.554;7.834;2023-03-16T09:25:42;5.57;;;3.77;;
4268;SDS011;2148;48.554;7.834;2023-03-16T09:28:07;4.33;;;3.57;;
4268;SDS011;2148;48.554;7.834;2023-03-16T09:30:32;5.00;;;3.97;;
4268;SDS011;2148;48.554;7.834;2023-03-16T09:32:58;3.80;;;3.50;;
4268;SDS011;2148;48.554;7.834;2023-03-16T09:35:24;6.83;;;4.03;;
4268;SDS011;2148;48.554;7.834;2023-03-16T09:37:50;4.10;;;3.53;;
4268;SDS011;2148;48.554;7.834;2023-03-16T09:40:21;4.10;;;3.60;;
4268;SDS011;2148;48.554;7.834;2023-03-16T09:43:32;3.73;;;3.43;;
4268;SDS011;2148;48.554;7.834;2023-03-16T09:48:57;3.50;;;3.20;;
4268;SDS011;2148;48.554;7.834;2023-03-16T09:51:43;4.13;;;3.10;;
4268;SDS011;2148;48.554;7.834;2023-03-16T10:00:05;4.80;;;3.23;;
4268;SDS011;2148;48.554;7.834;2023-03-16T10:02:46;3.70;;;3.20;;
4268;SDS011;2148;48.554;7.834;2023-03-16T10:05:19;3.60;;;3.30;;
4268;SDS011;2148;48.554;7.834;2023-03-16T10:07:49;3.30;;;3.00;;
4268;SDS011;2148;48.554;7.834;2023-03-16T10:10:19;3.20;;;2.90;;
4268;SDS011;2148;48.554;7.834;2023-03-16T10:12:50;3.33;;;3.03;;
4268;SDS011;2148;48.554;7.834;2023-03-16T10:15:21;3.70;;;3.40;;
4268;SDS011;2148;48.554;7.834;2023-03-16T10:20:22;4.97;;;3.23;;
4268;SDS011;2148;48.554;7.834;2023-03-16T10:22:48;3.80;;;3.40;;
4268;SDS011;2148;48.554;7.834;2023-03-16T10:25:21;2.90;;;2.60;;
4268;SDS011;2148;48.554;7.834;2023-03-16T10:27:47;3.90;;;3.10;;
4268;SDS011;2148;48.554;7.834;2023-03-16T10:32:44;3.13;;;2.83;;
4268;SDS011;2148;48.554;7.834;2023-03-16T10:35:14;3.70;;;3.00;;
4268;SDS011;2148;48.554;7.834;2023-03-16T10:37:46;3.00;;;2.70;;
4268;SDS011;2148;48.554;7.834;2023-03-16T10:40:13;4.13;;;3.70;;
4268;SDS011;2148;48.554;7.834;2023-03-16T10:42:38;4.23;;;2.60;;
4268;SDS011;2148;48.554;7.834;2023-03-16T10:45:04;3.30;;;3.00;;
4268;SDS011;2148;48.554;7.834;2023-03-16T10:47:30;3.43;;;2.97;;
4268;SDS011;2148;48.554;7.834;2023-03-16T10:49:57;3.13;;;2.40;;
4268;SDS011;2148;48.554;7.834;2023-03-16T10:52:39;3.07;;;2.70;;
4268;SDS011;2148;48.554;7.834;2023-03-16T10:55:14;3.00;;;2.70;;
4268;SDS011;2148;48.554;7.834;2023-03-16T10:57:42;2.60;;;2.30;;
4268;SDS011;2148;48.554;7.834;2023-03-16T11:00:14;2.40;;;2.20;;
4268;SDS011;2148;48.554;7.834;2023-03-16T11:02:44;2.80;;;2.50;;
4268;SDS011;2148;48.554;7.834;2023-03-16T11:05:12;2.37;;;2.13;;
4268;SDS011;2148;48.554;7.834;2023-03-16T11:07:57;3.30;;;2.60;;
4268;SDS011;2148;48.554;7.834;2023-03-16T11:10:25;2.50;;;2.30;;
4268;SDS011;2148;48.554;7.834;2023-03-16T11:12:53;3.93;;;2.23;;
4268;SDS011;2148;48.554;7.834;2023-03-16T11:15:19;2.47;;;2.17;;
4268;SDS011;2148;48.554;7.834;2023-03-16T11:17:46;2.50;;;2.30;;
4268;SDS011;2148;48.554;7.834;2023-03-16T11:20:19;3.07;;;2.67;;
4268;SDS011;2148;48.554;7.834;2023-03-16T11:22:47;3.17;;;2.60;;
4268;SDS011;2148;48.554;7.834;2023-03-16T11:25:13;2.70;;;2.37;;
4268;SDS011;2148;48.554;7.834;2023-03-16T11:27:51;2.93;;;2.60;;
4268;SDS011;2148;48.554;7.834;2023-03-16T11:30:22;3.60;;;2.40;;
4268;SDS011;2148;48.554;7.834;2023-03-16T11:32:53;4.03;;;2.63;;
4268;SDS011;2148;48.554;7.834;2023-03-16T11:35:19;3.73;;;2.60;;
4268;SDS011;2148;48.554;7.834;2023-03-16T11:40:53;2.40;;;2.17;;
4268;SDS011;2148;48.554;7.834;2023-03-16T11:46:21;4.43;;;3.37;;
4268;SDS011;2148;48.554;7.834;2023-03-16T11:51:56;3.20;;;2.90;;
4268;SDS011;2148;48.554;7.834;2023-03-16T11:57:26;3.43;;;2.93;;
4268;SDS011;2148;48.554;7.834;2023-03-16T12:08:52;4.07;;;2.80;;
4268;SDS011;2148;48.554;7.834;2023-03-16T12:14:19;3.53;;;2.83;;
4268;SDS011;2148;48.554;7.834;2023-03-16T12:19:40;3.20;;;2.90;;
4268;SDS011;2148;48.554;7.834;2023-03-16T12:22:14;2.43;;;2.23;;
4268;SDS011;2148;48.554;7.834;2023-03-16T12:24:42;3.13;;;2.33;;
4268;SDS011;2148;48.554;7.834;2023-03-16T12:27:12;3.23;;;2.33;;
4268;SDS011;2148;48.554;7.834;2023-03-16T12:30:23;4.23;;;2.70;;
4268;SDS011;2148;48.554;7.834;2023-03-16T12:36:02;3.07;;;2.70;;
4268;SDS011;2148;48.554;7.834;2023-03-16T12:41:09;3.77;;;2.97;;
4268;SDS011;2148;48.554;7.834;2023-03-16T12:44:08;3.03;;;2.77;;
4268;SDS011;2148;48.554;7.834;2023-03-16T12:46:45;3.00;;;2.80;;
4268;SDS011;2148;48.554;7.834;2023-03-16T12:49:12;3.03;;;2.83;;
4268;SDS011;2148;48.554;7.834;2023-03-16T12:51:38;3.63;;;2.70;;
4268;SDS011;2148;48.554;7.834;2023-03-16T12:54:05;3.10;;;2.80;;
4268;SDS011;2148;48.554;7.834;2023-03-16T12:56:43;3.50;;;2.77;;
4268;SDS011;2148;48.554;7.834;2023-03-16T12:59:17;2.90;;;2.60;;
4268;SDS011;2148;48.554;7.834;2023-03-16T13:01:47;3.43;;;2.80;;
4268;SDS011;2148;48.554;7.834;2023-03-16T13:04:17;2.53;;;2.33;;
4268;SDS011;2148;48.554;7.834;2023-03-16T13:07:00;3.70;;;2.57;;
4268;SDS011;2148;48.554;7.834;2023-03-16T13:09:40;2.20;;;2.00;;
4268;SDS011;2148;48.554;7.834;2023-03-16T13:12:19;3.70;;;2.40;;
4268;SDS011;2148;48.554;7.834;2023-03-16T13:14:46;3.83;;;3.17;;
4268;SDS011;2148;48.554;7.834;2023-03-16T13:19:42;4.90;;;4.40;;
4268;SDS011;2148;48.554;7.834;2023-03-16T13:27:51;2.70;;;2.50;;
4268;SDS011;2148;48.554;7.834;2023-03-16T13:30:21;2.30;;;2.10;;
4268;SDS011;2148;48.554;7.834;2023-03-16T13:32:51;2.77;;;2.43;;
4268;SDS011;2148;48.554;7.834;2023-03-16T13:35:17;2.97;;;2.67;;
4268;SDS011;2148;48.554;7.834;2023-03-16T13:37:43;4.30;;;3.33;;
4268;SDS011;2148;48.554;7.834;2023-03-16T13:40:17;3.37;;;3.03;;
4268;SDS011;2148;48.554;7.834;2023-03-16T13:42:50;3.83;;;2.77;;
4268;SDS011;2148;48.554;7.834;2023-03-16T13:45:26;4.23;;;3.20;;
4268;SDS011;2148;48.554;7.834;2023-03-16T13:47:55;4.57;;;2.70;;
4268;SDS011;2148;48.554;7.834;2023-03-16T13:50:20;2.80;;;2.60;;
4268;SDS011;2148;48.554;7.834;2023-03-16T13:52:55;3.73;;;3.07;;
4268;SDS011;2148;48.554;7.834;2023-03-16T13:55:25;2.77;;;2.40;;
4268;SDS011;2148;48.554;7.834;2023-03-16T13:57:54;3.73;;;2.87;;
4268;SDS011;2148;48.554;7.834;2023-03-16T14:02:53;3.43;;;3.03;;
4268;SDS011;2148;48.554;7.834;2023-03-16T14:05:27;3.27;;;2.97;;
4268;SDS011;2148;48.554;7.834;2023-03-16T14:07:57;3.97;;;2.97;;
4268;SDS011;2148;48.554;7.834;2023-03-16T14:10:26;2.60;;;2.40;;
4268;SDS011;2148;48.554;7.834;2023-03-16T14:13:05;2.80;;;2.50;;
4268;SDS011;2148;48.554;7.834;2023-03-16T14:15:32;3.33;;;2.90;;
4268;SDS011;2148;48.554;7.834;2023-03-16T14:18:07;2.90;;;2.70;;
4268;SDS011;2148;48.554;7.834;2023-03-16T14:20:37;3.40;;;2.70;;
4268;SDS011;2148;48.554;7.834;2023-03-16T14:23:04;4.30;;;2.90;;
4268;SDS011;2148;48.554;7.834;2023-03-16T14:25:29;3.30;;;3.00;;
4268;SDS011;2148;48.554;7.834;2023-03-16T14:27:58;3.50;;;2.70;;
4268;SDS011;2148;48.554;7.834;2023-03-16T14:30:26;3.40;;;3.00;;
4268;SDS011;2148;48.554;7.834;2023-03-16T14:33:18;3.73;;;2.90;;
4268;SDS011;2148;48.554;7.834;2023-03-16T14:35:53;3.43;;;2.60;;
4268;SDS011;2148;48.554;7.834;2023-03-16T14:38:20;3.23;;;2.93;;
4268;SDS011;2148;48.554;7.834;2023-03-16T14:41:32;3.00;;;2.70;;
4268;SDS011;2148;48.554;7.834;2023-03-16T14:43:53;4.10;;;2.97;;
4268;SDS011;2148;48.554;7.834;2023-03-16T14:46:30;4.60;;;3.20;;
4268;SDS011;2148;48.554;7.834;2023-03-16T14:49:01;3.20;;;3.00;;
4268;SDS011;2148;48.554;7.834;2023-03-16T14:51:29;4.30;;;3.00;;
4268;SDS011;2148;48.554;7.834;2023-03-16T14:53:55;3.63;;;3.33;;
4268;SDS011;2148;48.554;7.834;2023-03-16T14:56:21;4.13;;;2.93;;
4268;SDS011;2148;48.554;7.834;2023-03-16T14:58:47;3.57;;;3.20;;
4268;SDS011;2148;48.554;7.834;2023-03-16T15:01:13;2.60;;;2.40;;
4268;SDS011;2148;48.554;7.834;2023-03-16T15:03:41;3.03;;;2.73;;
4268;SDS011;2148;48.554;7.834;2023-03-16T15:06:07;4.17;;;2.57;;
4268;SDS011;2148;48.554;7.834;2023-03-16T15:08:33;4.77;;;3.23;;
4268;SDS011;2148;48.554;7.834;2023-03-16T15:11:02;3.70;;;3.40;;
4268;SDS011;2148;48.554;7.834;2023-03-16T15:13:29;4.77;;;3.33;;
4268;SDS011;2148;48.554;7.834;2023-03-16T15:16:04;4.10;;;3.00;;
4268;SDS011;2148;48.554;7.834;2023-03-16T15:18:30;5.37;;;2.90;;
4268;SDS011;2148;48.554;7.834;2023-03-16T15:20:57;2.93;;;2.63;;
4268;SDS011;2148;48.554;7.834;2023-03-16T15:23:23;3.03;;;2.63;;
4268;SDS011;2148;48.554;7.834;2023-03-16T15:25:49;4.80;;;3.37;;
4268;SDS011;2148;48.554;7.834;2023-03-16T15:28:20;3.40;;;3.10;;
4268;SDS011;2148;48.554;7.834;2023-03-16T15:30:47;3.23;;;2.97;;
4268;SDS011;2148;48.554;7.834;2023-03-16T15:33:14;3.87;;;3.27;;
4268;SDS011;2148;48.554;7.834;2023-03-16T15:35:40;3.77;;;2.70;;
4268;SDS011;2148;48.554;7.834;2023-03-16T15:38:10;3.77;;;2.50;;
4268;SDS011;2148;48.554;7.834;2023-03-16T15:40:38;4.07;;;2.47;;
4268;SDS011;2148;48.554;7.834;2023-03-16T15:43:13;2.40;;;2.20;;
4268;SDS011;2148;48.554;7.834;2023-03-16T15:45:41;2.93;;;2.37;;
4268;SDS011;2148;48.554;7.834;2023-03-16T15:48:07;4.60;;;2.60;;
4268;SDS011;2148;48.554;7.834;2023-03-16T15:50:33;4.00;;;2.80;;
4268;SDS011;2148;48.554;7.834;2023-03-16T15:53:00;3.40;;;2.63;;
4268;SDS011;2148;48.554;7.834;2023-03-16T15:55:34;2.90;;;2.53;;
4268;SDS011;2148;48.554;7.834;2023-03-16T15:58:01;2.93;;;2.10;;
4268;SDS011;2148;48.554;7.834;2023-03-16T16:00:29;2.70;;;2.30;;
4268;SDS011;2148;48.554;7.834;2023-03-16T16:02:57;2.90;;;2.20;;
4268;SDS011;2148;48.554;7.834;2023-03-16T16:05:23;2.80;;;2.33;;
4268;SDS011;2148;48.554;7.834;2023-03-16T16:07:49;2.70;;;2.10;;
4268;SDS011;2148;48.554;7.834;2023-03-16T16:10:14;5.77;;;3.67;;
4268;SDS011;2148;48.554;7.834;2023-03-16T16:12:42;4.93;;;4.40;;
4268;SDS011;2148;48.554;7.834;2023-03-16T16:15:18;3.77;;;3.23;;
4268;SDS011;2148;48.554;7.834;2023-03-16T16:17:46;3.20;;;2.63;;
4268;SDS011;2148;48.554;7.834;2023-03-16T16:22:51;2.33;;;2.13;;
4268;SDS011;2148;48.554;7.834;2023-03-16T16:25:18;2.50;;;2.30;;